createdAt,value
2023-02-04T00:01:49.544Z,84.27
2023-02-04T00:04:54.042Z,84.29
2023-02-04T00:07:58.608Z,84.31
2023-02-04T00:11:03.104Z,84.32
2023-02-04T00:14:08.077Z,84.17
2023-02-04T00:17:13.117Z,84.28
2023-02-04T00:20:19.697Z,84.44
2023-02-04T00:23:24.197Z,84.42
2023-02-04T00:26:28.746Z,84.56
2023-02-04T00:29:33.329Z,84.53
2023-02-04T00:32:37.920Z,84.57
2023-02-04T00:35:42.600Z,84.52
2023-02-04T00:38:47.034Z,84.62
2023-02-04T00:41:51.503Z,84.72
2023-02-04T00:44:56.074Z,84.60
2023-02-04T00:48:00.599Z,84.63
2023-02-04T00:51:05.248Z,84.61
2023-02-04T00:54:09.777Z,84.73
2023-02-04T00:57:14.251Z,84.63
2023-02-04T01:00:19.233Z,84.60
2023-02-04T01:03:23.747Z,84.62
2023-02-04T01:06:28.367Z,84.76
2023-02-04T01:09:32.917Z,84.74
2023-02-04T01:12:37.442Z,84.84
2023-02-04T01:15:42.066Z,84.76
2023-02-04T01:18:46.548Z,84.84
2023-02-04T01:21:51.202Z,84.78
2023-02-04T01:24:55.695Z,84.89
2023-02-04T01:28:00.298Z,84.76
2023-02-04T01:31:04.994Z,84.85
2023-02-04T01:34:09.610Z,84.83
2023-02-04T01:37:14.100Z,84.68
2023-02-04T01:40:18.898Z,84.84
2023-02-04T01:43:23.761Z,84.82
2023-02-04T01:46:28.232Z,84.73
2023-02-04T01:49:32.954Z,84.90
2023-02-04T01:52:40.293Z,84.78
2023-02-04T01:55:44.813Z,84.99
2023-02-04T01:58:49.860Z,84.98
2023-02-04T02:01:54.429Z,84.95
2023-02-04T02:04:58.957Z,84.95
2023-02-04T02:08:04.372Z,85.02
2023-02-04T02:11:08.930Z,85.01
2023-02-04T02:14:13.857Z,84.88
2023-02-04T02:17:18.415Z,85.10
2023-02-04T02:20:24.246Z,85.02
2023-02-04T02:23:34.125Z,85.02
2023-02-04T02:26:38.748Z,85.19
2023-02-04T02:29:43.774Z,85.10
2023-02-04T02:32:49.102Z,85.05
2023-02-04T02:35:53.733Z,85.14
2023-02-04T02:39:00.164Z,85.13
2023-02-04T02:42:05.036Z,85.20
2023-02-04T02:45:14.988Z,85.18
2023-02-04T02:48:19.526Z,85.15
2023-02-04T02:51:24.164Z,85.18
2023-02-04T02:54:29.977Z,85.29
2023-02-04T02:57:34.493Z,85.09
2023-02-04T03:00:39.027Z,85.04
2023-02-04T03:03:44.780Z,84.92
2023-02-04T03:06:49.875Z,84.81
2023-02-04T03:09:54.570Z,85.13
2023-02-04T03:12:59.516Z,85.34
2023-02-04T03:16:04.546Z,85.27
2023-02-04T03:19:09.526Z,85.36
2023-02-04T03:22:14.052Z,85.31
2023-02-04T03:25:18.876Z,85.38
2023-02-04T03:28:23.336Z,85.36
2023-02-04T03:31:27.978Z,85.31
2023-02-04T03:34:32.630Z,85.29
2023-02-04T03:37:37.252Z,85.28
2023-02-04T03:40:41.804Z,85.31
2023-02-04T03:43:46.298Z,85.28
2023-02-04T03:46:55.529Z,85.33
2023-02-04T03:50:00.261Z,85.37
2023-02-04T03:53:04.812Z,85.23
2023-02-04T03:56:10.490Z,85.14
2023-02-04T03:59:14.976Z,85.24
2023-02-04T04:02:19.512Z,85.28
2023-02-04T04:05:23.969Z,85.29
2023-02-04T04:08:28.413Z,85.20
2023-02-04T04:11:32.943Z,85.27
2023-02-04T04:14:37.859Z,85.21
2023-02-04T04:17:42.349Z,84.93
2023-02-04T04:20:46.810Z,85.10
2023-02-04T04:23:51.361Z,84.99
2023-02-04T04:26:55.863Z,84.88
2023-02-04T04:30:00.415Z,84.90
2023-02-04T04:33:05.027Z,84.93
2023-02-04T04:36:09.993Z,84.97
2023-02-04T04:39:14.597Z,84.88
2023-02-04T04:42:19.083Z,85.00
2023-02-04T04:45:23.532Z,84.94
2023-02-04T04:48:28.321Z,84.91
2023-02-04T04:51:33.079Z,84.80
2023-02-04T04:54:37.643Z,84.77
2023-02-04T04:57:42.135Z,84.44
2023-02-04T05:00:46.682Z,84.31
2023-02-04T05:03:51.317Z,84.18
2023-02-04T05:06:55.821Z,84.29
2023-02-04T05:10:00.426Z,84.28
2023-02-04T05:13:04.926Z,84.32
2023-02-04T05:16:12.087Z,84.23
2023-02-04T05:19:16.635Z,84.25
2023-02-04T05:22:21.106Z,84.32
2023-02-04T05:25:25.720Z,84.44
2023-02-04T05:28:30.281Z,84.56
2023-02-04T05:31:34.788Z,84.80
2023-02-04T05:34:40.073Z,84.85
2023-02-04T05:37:44.564Z,84.74
2023-02-04T05:40:49.135Z,84.89
2023-02-04T05:43:53.668Z,84.92
2023-02-04T05:46:58.362Z,84.88
2023-02-04T05:50:02.971Z,85.20
2023-02-04T05:53:07.524Z,85.13
2023-02-04T05:56:12.113Z,85.36
2023-02-04T05:59:16.681Z,85.57
2023-02-04T06:02:21.221Z,85.47
2023-02-04T06:05:25.699Z,85.40
2023-02-04T06:08:30.240Z,85.47
2023-02-04T06:11:34.868Z,85.66
2023-02-04T06:14:39.496Z,85.77
2023-02-04T06:17:44.029Z,85.66
2023-02-04T06:20:48.618Z,85.58
2023-02-04T06:23:53.182Z,85.73
2023-02-04T06:26:58.024Z,85.75
2023-02-04T06:30:02.494Z,85.65
2023-02-04T06:33:07.040Z,85.70
2023-02-04T06:36:11.545Z,85.90
2023-02-04T06:39:16.012Z,85.92
2023-02-04T06:42:20.553Z,85.95
2023-02-04T06:45:25.019Z,85.84
2023-02-04T06:48:31.124Z,86.07
2023-02-04T06:51:35.827Z,86.21
2023-02-04T06:54:40.341Z,86.18
2023-02-04T06:57:45.102Z,86.30
2023-02-04T07:00:49.637Z,86.35
2023-02-04T07:03:54.183Z,86.37
2023-02-04T07:06:58.786Z,86.19
2023-02-04T07:10:03.275Z,86.28
2023-02-04T07:13:07.718Z,86.33
2023-02-04T07:16:12.347Z,86.23
2023-02-04T07:19:16.992Z,86.28
2023-02-04T07:22:21.514Z,86.25
2023-02-04T07:25:26.066Z,86.33
2023-02-04T07:28:31.617Z,86.43
2023-02-04T07:31:36.210Z,86.36
2023-02-04T07:34:40.769Z,86.37
2023-02-04T07:37:45.246Z,86.31
2023-02-04T07:40:49.994Z,86.27
2023-02-04T07:43:54.492Z,86.36
2023-02-04T07:46:59.039Z,86.44
2023-02-04T07:50:03.601Z,86.55
2023-02-04T07:53:08.080Z,86.53
2023-02-04T07:56:12.608Z,86.75
2023-02-04T07:59:17.129Z,86.71
2023-02-04T08:02:21.704Z,86.80
2023-02-04T08:05:26.325Z,86.81
2023-02-04T08:08:30.842Z,86.66
2023-02-04T08:11:35.400Z,86.73
2023-02-04T08:14:39.847Z,86.60
2023-02-04T08:17:44.486Z,86.56
2023-02-04T08:20:49.049Z,86.61
2023-02-04T08:23:53.644Z,86.55
2023-02-04T08:26:58.401Z,86.48
2023-02-04T08:30:02.947Z,86.35
2023-02-04T08:33:07.629Z,86.24
2023-02-04T08:36:12.188Z,86.33
2023-02-04T08:39:16.629Z,86.27
2023-02-04T08:42:21.324Z,86.25
2023-02-04T08:45:25.870Z,86.13
2023-02-04T08:48:30.330Z,86.17
2023-02-04T08:51:35.014Z,86.08
2023-02-04T08:54:39.494Z,85.93
2023-02-04T08:57:44.040Z,85.94
2023-02-04T09:00:48.657Z,85.83
2023-02-04T09:03:53.324Z,85.87
2023-02-04T09:06:57.865Z,85.42
2023-02-04T09:10:02.320Z,85.33
2023-02-04T09:13:09.260Z,85.40
2023-02-04T09:16:14.524Z,85.33
2023-02-04T09:19:24.146Z,85.20
2023-02-04T09:22:28.696Z,85.10
2023-02-04T09:25:33.216Z,85.04
2023-02-04T09:28:37.813Z,85.06
2023-02-04T09:31:42.419Z,84.71
2023-02-04T09:34:46.980Z,84.54
2023-02-04T09:37:51.527Z,84.34
2023-02-04T09:40:58.800Z,84.27
2023-02-04T09:44:03.476Z,84.04
2023-02-04T09:47:07.970Z,84.08
2023-02-04T09:50:15.499Z,83.91
2023-02-04T09:53:21.385Z,83.87
2023-02-04T09:56:26.351Z,84.04
2023-02-04T09:59:30.852Z,83.78
2023-02-04T10:02:36.383Z,83.29
2023-02-04T10:05:40.872Z,83.24
2023-02-04T10:08:46.129Z,83.30
2023-02-04T10:11:50.814Z,83.49
2023-02-04T10:14:55.417Z,83.31
2023-02-04T10:18:02.987Z,83.17
2023-02-04T10:21:14.314Z,82.79
2023-02-04T10:24:20.026Z,82.65
2023-02-04T10:27:24.605Z,82.39
2023-02-04T10:30:30.271Z,82.67
2023-02-04T10:33:37.091Z,82.83
2023-02-04T10:36:43.424Z,82.64
2023-02-04T10:39:48.990Z,82.23
2023-02-04T10:42:53.539Z,82.06
2023-02-04T10:45:59.469Z,82.13
2023-02-04T10:49:04.950Z,82.25
2023-02-04T10:52:15.192Z,82.06
2023-02-04T10:55:21.094Z,82.11
2023-02-04T10:58:28.048Z,81.91
2023-02-04T11:01:32.980Z,81.70
2023-02-04T11:04:37.533Z,81.63
2023-02-04T11:07:42.243Z,81.51
2023-02-04T11:10:46.883Z,81.59
2023-02-04T11:14:00.888Z,80.99
2023-02-04T11:17:05.513Z,81.17
2023-02-04T11:20:31.991Z,81.25
2023-02-04T11:23:39.721Z,80.71
2023-02-04T11:26:44.855Z,80.64
2023-02-04T11:29:49.381Z,80.51
2023-02-04T11:33:03.236Z,80.21
2023-02-04T11:36:09.718Z,80.08
2023-02-04T11:39:18.144Z,80.30
2023-02-04T11:42:23.522Z,80.15
2023-02-04T11:45:28.978Z,80.09
2023-02-04T11:48:33.616Z,79.90
2023-02-04T11:51:38.122Z,79.30
2023-02-04T11:54:42.686Z,79.24
2023-02-04T11:57:47.744Z,79.50
2023-02-04T12:00:52.235Z,79.41
2023-02-04T12:04:00.047Z,79.53
2023-02-04T12:07:05.692Z,79.35
2023-02-04T12:10:26.239Z,78.52
2023-02-04T12:13:31.169Z,78.07
2023-02-04T12:16:43.078Z,78.18
2023-02-04T12:19:47.729Z,77.91
2023-02-04T12:22:52.278Z,78.08
2023-02-04T12:25:56.988Z,77.77
2023-02-04T12:29:03.459Z,77.13
2023-02-04T12:32:08.024Z,77.02
2023-02-04T12:35:12.609Z,76.39
2023-02-04T12:38:18.038Z,76.39
2023-02-04T12:41:23.270Z,76.08
2023-02-04T12:44:27.803Z,76.15
2023-02-04T12:47:32.366Z,75.69
2023-02-04T12:50:36.869Z,75.62
2023-02-04T12:53:41.377Z,75.12
2023-02-04T12:56:45.902Z,74.99
2023-02-04T12:59:50.616Z,74.62
2023-02-04T13:02:56.154Z,74.50
2023-02-04T13:06:00.557Z,74.36
2023-02-04T13:09:05.125Z,74.43
2023-02-04T13:12:09.709Z,74.04
2023-02-04T13:15:14.458Z,73.79
2023-02-04T13:18:19.780Z,73.21
2023-02-04T13:21:24.240Z,73.41
2023-02-04T13:24:29.113Z,73.30
2023-02-04T13:27:33.615Z,73.02
2023-02-04T13:30:38.186Z,73.14
2023-02-04T13:33:42.659Z,72.85
2023-02-04T13:36:47.164Z,72.91
2023-02-04T13:39:51.612Z,72.88
2023-02-04T13:42:56.268Z,72.57
2023-02-04T13:46:02.974Z,72.40
2023-02-04T13:49:07.562Z,72.48
2023-02-04T13:52:12.193Z,72.33
2023-02-04T13:55:16.924Z,72.33
2023-02-04T13:58:21.450Z,72.43
2023-02-04T14:01:26.092Z,72.44
2023-02-04T14:04:30.590Z,72.28
2023-02-04T14:07:35.295Z,72.23
2023-02-04T14:10:39.731Z,72.32
2023-02-04T14:13:44.301Z,72.08
2023-02-04T14:16:48.793Z,72.09
2023-02-04T14:19:53.344Z,72.16
2023-02-04T14:22:57.831Z,71.93
2023-02-04T14:26:02.480Z,71.88
2023-02-04T14:29:07.229Z,71.87
2023-02-04T14:32:11.691Z,71.84
2023-02-04T14:35:16.668Z,71.63
2023-02-04T14:38:21.295Z,71.52
2023-02-04T14:41:26.509Z,71.72
2023-02-04T14:44:31.045Z,71.86
2023-02-04T14:47:35.661Z,71.69
2023-02-04T14:50:40.322Z,71.72
2023-02-04T14:53:48.274Z,71.66
2023-02-04T14:56:53.331Z,71.68
2023-02-04T14:59:57.999Z,71.54
2023-02-04T15:03:02.621Z,71.63
2023-02-04T15:06:07.800Z,71.60
2023-02-04T15:09:12.331Z,71.51
2023-02-04T15:12:16.816Z,71.60
2023-02-04T15:15:21.480Z,71.51
2023-02-04T15:18:25.963Z,71.70
2023-02-04T15:21:30.510Z,71.62
2023-02-04T15:24:35.116Z,71.73
2023-02-04T15:27:39.690Z,71.90
2023-02-04T15:30:44.292Z,71.92
2023-02-04T15:33:49.030Z,71.73
2023-02-04T15:36:53.542Z,71.64
2023-02-04T15:39:58.073Z,71.77
2023-02-04T15:43:02.542Z,71.62
2023-02-04T15:46:07.142Z,71.83
2023-02-04T15:49:12.014Z,71.71
2023-02-04T15:52:24.649Z,71.84
2023-02-04T15:55:30.075Z,71.81
2023-02-04T15:58:34.724Z,71.95
2023-02-04T16:01:39.313Z,71.97
2023-02-04T16:04:45.478Z,71.80
2023-02-04T16:07:50.265Z,71.82
2023-02-04T16:10:55.323Z,71.89
2023-02-04T16:14:00.166Z,72.01
2023-02-04T16:17:06.964Z,72.05
2023-02-04T16:20:12.548Z,72.05
2023-02-04T16:23:17.117Z,71.96
2023-02-04T16:26:21.578Z,72.09
2023-02-04T16:29:26.984Z,72.02
2023-02-04T16:32:33.648Z,72.13
2023-02-04T16:35:56.439Z,72.12
2023-02-04T16:39:02.867Z,72.07
2023-02-04T16:42:09.001Z,72.00
2023-02-04T16:45:13.671Z,71.91
2023-02-04T16:48:18.474Z,72.04
2023-02-04T16:51:23.062Z,72.33
2023-02-04T16:54:27.605Z,72.39
2023-02-04T16:57:32.137Z,72.47
2023-02-04T17:00:38.827Z,72.73
2023-02-04T17:03:43.301Z,72.55
2023-02-04T17:06:47.810Z,72.54
2023-02-04T17:09:52.275Z,72.46
2023-02-04T17:12:57.369Z,72.68
2023-02-04T17:16:01.965Z,72.70
2023-02-04T17:19:06.795Z,72.64
2023-02-04T17:22:11.292Z,72.78
2023-02-04T17:25:15.913Z,72.67
2023-02-04T17:28:20.509Z,72.73
2023-02-04T17:31:25.003Z,72.86
2023-02-04T17:34:29.849Z,72.70
2023-02-04T17:37:34.356Z,72.85
2023-02-04T17:40:38.849Z,72.90
2023-02-04T17:43:43.504Z,73.15
2023-02-04T17:46:48.282Z,73.30
2023-02-04T17:49:52.788Z,73.05
2023-02-04T17:52:58.063Z,73.20
2023-02-04T17:56:02.669Z,73.18
2023-02-04T17:59:10.570Z,73.48
2023-02-04T18:02:20.038Z,73.48
2023-02-04T18:05:27.093Z,73.51
2023-02-04T18:08:37.483Z,73.61
2023-02-04T18:11:41.969Z,73.78
2023-02-04T18:14:46.965Z,73.88
2023-02-04T18:17:52.980Z,74.00
2023-02-04T18:21:01.406Z,74.07
2023-02-04T18:24:08.337Z,73.98
2023-02-04T18:27:17.061Z,74.33
2023-02-04T18:30:22.528Z,74.25
2023-02-04T18:33:28.189Z,74.06
2023-02-04T18:36:34.008Z,74.21
2023-02-04T18:39:38.517Z,74.12
2023-02-04T18:42:43.690Z,74.06
2023-02-04T18:45:48.327Z,74.32
2023-02-04T18:48:59.990Z,74.21
2023-02-04T18:52:15.138Z,74.44
2023-02-04T18:55:27.983Z,74.60
2023-02-04T18:58:36.003Z,74.57
2023-02-04T19:01:40.858Z,74.65
2023-02-04T19:04:45.960Z,74.85
2023-02-04T19:07:51.352Z,74.86
2023-02-04T19:10:56.488Z,74.93
2023-02-04T19:14:01.379Z,74.79
2023-02-04T19:17:22.090Z,74.84
2023-02-04T19:20:26.950Z,74.89
2023-02-04T19:23:37.378Z,74.72
2023-02-04T19:26:43.326Z,74.99
2023-02-04T19:29:49.823Z,74.86
2023-02-04T19:32:55.989Z,75.08
2023-02-04T19:36:01.817Z,75.08
2023-02-04T19:39:08.743Z,75.50
2023-02-04T19:42:24.568Z,75.38
2023-02-04T19:45:29.249Z,75.33
2023-02-04T19:48:36.862Z,75.28
2023-02-04T19:51:41.667Z,75.07
2023-02-04T19:54:45.993Z,74.98
2023-02-04T19:59:33.921Z,75.19
2023-02-04T20:02:42.293Z,74.96
2023-02-04T20:12:05.876Z,75.15
2023-02-04T20:15:20.673Z,75.18
2023-02-04T20:18:29.166Z,75.29
2023-02-04T20:21:35.440Z,75.25
2023-02-04T20:24:42.070Z,75.21
2023-02-04T20:27:52.348Z,75.53
2023-02-04T20:31:01.820Z,75.37
2023-02-04T20:34:18.841Z,75.29
2023-02-04T20:37:27.827Z,75.46
2023-02-04T20:40:37.175Z,75.72
2023-02-04T20:43:44.427Z,75.69
2023-02-04T20:46:50.841Z,75.80
2023-02-04T20:49:58.861Z,75.70
2023-02-04T20:53:17.907Z,75.70
2023-02-04T20:56:28.342Z,75.87
2023-02-04T20:59:36.566Z,75.87
2023-02-04T21:02:42.771Z,75.77
2023-02-04T21:05:50.336Z,75.85
2023-02-04T21:08:58.501Z,75.91
2023-02-04T21:12:06.053Z,75.85
2023-02-04T21:15:13.254Z,76.01
2023-02-04T21:18:19.982Z,75.96
2023-02-04T21:21:27.536Z,75.92
2023-02-04T21:24:34.949Z,75.98
2023-02-04T21:27:41.293Z,76.17
2023-02-04T21:30:45.839Z,76.13
2023-02-04T21:33:51.952Z,76.07
2023-02-04T21:36:58.230Z,76.15
2023-02-04T21:40:02.649Z,76.22
2023-02-04T21:43:08.884Z,76.27
2023-02-04T21:46:15.590Z,76.43
2023-02-04T21:49:21.796Z,76.44
2023-02-04T21:52:28.097Z,76.41
2023-02-04T21:55:32.783Z,76.47
2023-02-04T21:58:39.713Z,76.49
2023-02-04T22:01:45.831Z,76.51
2023-02-04T22:04:52.431Z,76.49
2023-02-04T22:07:59.886Z,76.29
2023-02-04T22:11:06.350Z,76.32
2023-02-04T22:14:10.965Z,76.30
2023-02-04T22:17:17.218Z,76.26
2023-02-04T22:20:22.328Z,76.25
2023-02-04T22:23:28.754Z,76.30
2023-02-04T22:26:35.030Z,76.46
2023-02-04T22:29:39.344Z,76.41
2023-02-04T22:32:46.153Z,76.37
2023-02-04T22:35:52.364Z,76.30
2023-02-04T22:38:58.653Z,76.33
2023-02-04T22:42:03.191Z,76.47
2023-02-04T22:45:11.477Z,76.62
2023-02-04T22:48:17.704Z,76.57
2023-02-04T22:51:24.340Z,76.43
2023-02-04T22:54:30.472Z,76.28
2023-02-04T22:57:36.765Z,76.39
2023-02-04T23:00:41.934Z,76.28
2023-02-04T23:03:48.970Z,76.30
2023-02-04T23:06:55.782Z,76.31
2023-02-04T23:10:02.328Z,76.49
2023-02-04T23:13:08.713Z,76.50
2023-02-04T23:16:15.015Z,76.43
2023-02-04T23:19:19.540Z,76.46
2023-02-04T23:22:25.825Z,76.42
2023-02-04T23:25:30.633Z,76.38
2023-02-04T23:28:37.142Z,76.34
2023-02-04T23:31:43.181Z,76.27
2023-02-04T23:34:49.473Z,76.48
2023-02-04T23:37:53.780Z,76.39
2023-02-04T23:41:00.205Z,76.55
2023-02-04T23:44:06.750Z,76.48
2023-02-04T23:47:12.930Z,76.33
2023-02-04T23:50:20.138Z,76.40
2023-02-04T23:53:26.432Z,76.43
2023-02-04T23:56:31.025Z,76.39
2023-02-04T23:59:40.938Z,76.42
